createdAt,value
2023-05-06T00:00:03.853Z,98425.63
2023-05-06T00:02:40.135Z,98418.78
2023-05-06T00:05:07.952Z,98417.72
2023-05-06T00:07:35.229Z,98413.34
2023-05-06T00:10:02.303Z,98412.97
2023-05-06T00:12:29.421Z,98410.50
2023-05-06T00:14:56.467Z,98411.13
2023-05-06T00:17:23.628Z,98412.16
2023-05-06T00:19:52.158Z,98402.34
2023-05-06T00:22:19.275Z,98409.03
2023-05-06T00:24:46.456Z,98401.75
2023-05-06T00:27:13.639Z,98400.94
2023-05-06T00:29:40.699Z,98405.69
2023-05-06T00:32:07.880Z,98406.06
2023-05-06T00:34:34.990Z,98402.75
2023-05-06T00:37:03.651Z,98399.84
2023-05-06T00:39:30.806Z,98401.94
2023-05-06T00:41:59.736Z,98409.84
2023-05-06T00:44:26.789Z,98411.72
2023-05-06T00:46:53.989Z,98402.16
2023-05-06T00:49:21.947Z,98414.84
2023-05-06T00:51:49.583Z,98410.66
2023-05-06T00:54:18.450Z,98409.81
2023-05-06T00:56:45.536Z,98415.22
2023-05-06T00:59:12.826Z,98409.81
2023-05-06T01:01:40.838Z,98411.44
2023-05-06T01:04:08.097Z,98412.06
2023-05-06T01:06:37.893Z,98412.06
2023-05-06T01:09:07.945Z,98406.81
2023-05-06T01:11:39.027Z,98414.25
2023-05-06T01:14:08.570Z,98404.66
2023-05-06T01:16:38.436Z,98418.00
2023-05-06T01:19:06.053Z,98413.63
2023-05-06T01:21:33.246Z,98412.16
2023-05-06T01:24:01.935Z,98410.75
2023-05-06T01:26:29.212Z,98413.88
2023-05-06T01:28:57.296Z,98418.47
2023-05-06T01:31:25.940Z,98418.59
2023-05-06T01:34:02.640Z,98412.31
2023-05-06T01:36:33.233Z,98413.97
2023-05-06T01:39:08.961Z,98414.84
2023-05-06T01:41:39.403Z,98416.09
2023-05-06T01:44:07.657Z,98414.44
2023-05-06T01:46:35.850Z,98417.38
2023-05-06T01:49:04.813Z,98423.63
2023-05-06T01:51:32.918Z,98413.63
2023-05-06T01:54:01.473Z,98423.19
2023-05-06T01:56:28.617Z,98423.19
2023-05-06T01:58:55.686Z,98431.28
2023-05-06T02:01:22.884Z,98423.59
2023-05-06T02:03:50.099Z,98425.88
2023-05-06T02:06:17.405Z,98431.28
2023-05-06T02:08:44.827Z,98423.19
2023-05-06T02:11:18.121Z,98434.44
2023-05-06T02:13:46.350Z,98430.91
2023-05-06T02:16:13.622Z,98424.66
2023-05-06T02:18:41.012Z,98427.56
2023-05-06T02:21:08.397Z,98429.41
2023-05-06T02:23:36.752Z,98430.06
2023-05-06T02:26:03.839Z,98424.03
2023-05-06T02:28:32.355Z,98433.59
2023-05-06T02:30:59.752Z,98426.53
2023-05-06T02:33:26.807Z,98437.13
2023-05-06T02:35:54.060Z,98436.88
2023-05-06T02:38:21.577Z,98437.13
2023-05-06T02:40:48.672Z,98433.59
2023-05-06T02:43:15.787Z,98431.91
2023-05-06T02:45:44.442Z,98427.53
2023-05-06T02:48:11.541Z,98424.00
2023-05-06T02:50:38.651Z,98422.78
2023-05-06T02:53:05.789Z,98427.13
2023-05-06T02:55:32.918Z,98420.28
2023-05-06T02:57:59.998Z,98427.56
2023-05-06T03:00:27.370Z,98423.16
2023-05-06T03:02:55.973Z,98422.97
2023-05-06T03:05:23.082Z,98421.69
2023-05-06T03:07:50.179Z,98420.88
2023-05-06T03:10:17.581Z,98426.47
2023-05-06T03:12:44.716Z,98419.00
2023-05-06T03:15:12.201Z,98416.53
2023-05-06T03:17:39.632Z,98416.06
2023-05-06T03:20:10.018Z,98421.13
2023-05-06T03:22:41.228Z,98417.97
2023-05-06T03:25:09.146Z,98419.84
2023-05-06T03:27:39.297Z,98421.84
2023-05-06T03:30:13.621Z,98414.44
2023-05-06T03:32:41.035Z,98414.25
2023-05-06T03:35:12.529Z,98416.97
2023-05-06T03:37:42.694Z,98418.00
2023-05-06T03:40:10.707Z,98414.88
2023-05-06T03:42:38.740Z,98414.06
2023-05-06T03:45:06.774Z,98413.41
2023-05-06T03:47:34.581Z,98412.78
2023-05-06T03:50:03.548Z,98409.25
2023-05-06T03:52:34.511Z,98404.91
2023-05-06T03:55:01.790Z,98408.66
2023-05-06T03:57:31.011Z,98397.81
2023-05-06T03:59:58.729Z,98401.56
2023-05-06T04:02:27.669Z,98403.66
2023-05-06T04:04:55.300Z,98402.38
2023-05-06T04:07:22.422Z,98393.69
2023-05-06T04:09:52.463Z,98397.41
2023-05-06T04:12:20.112Z,98397.59
2023-05-06T04:14:48.305Z,98394.47
2023-05-06T04:17:15.718Z,98388.66
2023-05-06T04:19:44.253Z,98389.09
2023-05-06T04:22:11.372Z,98385.56
2023-05-06T04:24:38.740Z,98380.75
2023-05-06T04:27:07.698Z,98378.88
2023-05-06T04:29:34.892Z,98368.88
2023-05-06T04:32:04.700Z,98369.91
2023-05-06T04:34:35.067Z,98373.88
2023-05-06T04:37:02.412Z,98371.59
2023-05-06T04:39:55.847Z,98368.25
2023-05-06T04:42:25.035Z,98364.53
2023-05-06T04:45:02.727Z,98366.19
2023-05-06T04:47:32.801Z,98359.09
2023-05-06T04:50:00.893Z,98362.00
2023-05-06T04:52:28.878Z,98368.69
2023-05-06T04:54:56.185Z,98355.81
2023-05-06T04:57:25.853Z,98353.69
2023-05-06T04:59:54.917Z,98356.19
2023-05-06T05:02:22.393Z,98356.19
2023-05-06T05:04:50.282Z,98353.72
2023-05-06T05:07:17.645Z,98350.78
2023-05-06T05:09:44.827Z,98352.88
2023-05-06T05:12:12.057Z,98345.78
2023-05-06T05:14:44.755Z,98347.47
2023-05-06T05:17:14.044Z,98353.69
2023-05-06T05:19:41.868Z,98347.00
2023-05-06T05:22:09.370Z,98351.19
2023-05-06T05:24:36.497Z,98346.63
2023-05-06T05:27:03.599Z,98349.75
2023-05-06T05:29:30.928Z,98338.91
2023-05-06T05:32:01.645Z,98341.22
2023-05-06T05:34:28.856Z,98336.16
2023-05-06T05:36:56.798Z,98337.88
2023-05-06T05:39:24.598Z,98336.91
2023-05-06T05:41:51.847Z,98333.13
2023-05-06T05:44:19.205Z,98338.72
2023-05-06T05:46:47.006Z,98332.44
2023-05-06T05:49:19.270Z,98327.75
2023-05-06T05:51:48.951Z,98323.63
2023-05-06T05:54:18.238Z,98329.22
2023-05-06T05:56:46.395Z,98325.97
2023-05-06T05:59:14.523Z,98323.16
2023-05-06T06:01:43.101Z,98315.16
2023-05-06T06:04:10.756Z,98316.94
2023-05-06T06:06:40.048Z,98311.72
2023-05-06T06:09:07.135Z,98304.16
2023-05-06T06:11:34.356Z,98301.66
2023-05-06T06:14:02.193Z,98301.34
2023-05-06T06:16:29.539Z,98301.94
2023-05-06T06:18:57.010Z,98298.88
2023-05-06T06:21:24.900Z,98286.47
2023-05-06T06:23:54.493Z,98291.72
2023-05-06T06:26:21.599Z,98283.59
2023-05-06T06:28:48.690Z,98283.75
2023-05-06T06:31:15.951Z,98282.03
2023-05-06T06:33:43.120Z,98282.00
2023-05-06T06:36:11.248Z,98277.50
2023-05-06T06:38:38.808Z,98271.81
2023-05-06T06:41:07.375Z,98267.91
2023-05-06T06:43:34.461Z,98259.91
2023-05-06T06:46:07.285Z,98265.00
2023-05-06T06:48:34.722Z,98268.41
2023-05-06T06:51:01.952Z,98264.84
2023-05-06T06:53:28.999Z,98251.13
2023-05-06T06:55:56.082Z,98245.72
2023-05-06T06:58:24.643Z,98228.63
2023-05-06T07:00:51.743Z,98225.59
2023-05-06T07:03:18.904Z,98235.34
2023-05-06T07:05:46.082Z,98236.47
2023-05-06T07:08:13.267Z,98224.59
2023-05-06T07:10:40.430Z,98221.53
2023-05-06T07:13:07.654Z,98225.31
2023-05-06T07:15:36.202Z,98220.75
2023-05-06T07:18:03.474Z,98222.41
2023-05-06T07:20:30.742Z,98215.63
2023-05-06T07:22:58.003Z,98200.34
2023-05-06T07:25:25.090Z,98207.84
2023-05-06T07:27:52.330Z,98194.22
2023-05-06T07:30:21.065Z,98199.56
2023-05-06T07:32:51.549Z,98196.03
2023-05-06T07:35:18.715Z,98198.59
2023-05-06T07:37:46.148Z,98213.06
2023-05-06T07:40:13.457Z,98202.22
2023-05-06T07:42:42.813Z,98198.53
2023-05-06T07:45:11.154Z,98189.28
2023-05-06T07:47:38.743Z,98187.88
2023-05-06T07:50:08.096Z,98193.31
2023-05-06T07:52:35.232Z,98200.09
2023-05-06T07:55:02.319Z,98185.69
2023-05-06T07:57:29.410Z,98187.13
2023-05-06T07:59:56.742Z,98181.53
2023-05-06T08:02:23.828Z,98179.94
2023-05-06T08:04:51.935Z,98177.09
2023-05-06T08:07:20.652Z,98163.38
2023-05-06T08:09:47.804Z,98161.56
2023-05-06T08:12:14.897Z,98166.19
2023-05-06T08:14:42.176Z,98161.91
2023-05-06T08:17:09.324Z,98150.81
2023-05-06T08:19:36.406Z,98154.81
2023-05-06T08:22:03.498Z,98159.56
2023-05-06T08:24:32.042Z,98163.22
2023-05-06T08:26:59.168Z,98153.97
2023-05-06T08:29:26.324Z,98157.16
2023-05-06T08:31:53.522Z,98163.22
2023-05-06T08:34:20.969Z,98158.00
2023-05-06T08:36:48.371Z,98146.22
2023-05-06T08:39:15.669Z,98154.91
2023-05-06T08:41:47.351Z,98143.03
2023-05-06T08:44:15.451Z,98143.00
2023-05-06T08:46:42.736Z,98148.22
2023-05-06T08:49:09.939Z,98138.63
2023-05-06T08:51:38.208Z,98146.59
2023-05-06T08:54:06.005Z,98157.84
2023-05-06T08:56:34.125Z,98137.31
2023-05-06T08:59:02.782Z,98134.84
2023-05-06T09:01:29.954Z,98133.56
2023-05-06T09:03:58.285Z,98137.84
2023-05-06T09:06:25.927Z,98132.16
2023-05-06T09:08:53.230Z,98119.28
2023-05-06T09:11:22.058Z,98119.63
2023-05-06T09:13:49.642Z,98123.19
2023-05-06T09:16:30.921Z,98121.38
2023-05-06T09:18:58.989Z,98130.31
2023-05-06T09:21:36.268Z,98119.38
2023-05-06T09:24:03.808Z,98118.69
2023-05-06T09:26:31.132Z,98110.53
2023-05-06T09:28:58.267Z,98110.78
2023-05-06T09:31:25.866Z,98111.63
2023-05-06T09:33:54.915Z,98099.50
2023-05-06T09:36:22.438Z,98092.06
2023-05-06T09:38:49.706Z,98104.44
2023-05-06T09:41:20.353Z,98097.38
2023-05-06T09:43:48.177Z,98092.16
2023-05-06T09:46:16.236Z,98097.00
2023-05-06T09:48:43.503Z,98096.53
2023-05-06T09:51:12.214Z,98095.47
2023-05-06T09:53:39.524Z,98089.59
2023-05-06T09:56:07.804Z,98083.81
2023-05-06T09:58:35.470Z,98086.38
2023-05-06T10:01:02.834Z,98079.66
2023-05-06T10:03:31.086Z,98087.44
2023-05-06T10:05:58.623Z,98084.75
2023-05-06T10:08:27.806Z,98075.19
2023-05-06T10:10:55.504Z,98080.38
2023-05-06T10:13:23.556Z,98069.19
2023-05-06T10:15:50.873Z,98067.03
2023-05-06T10:18:19.254Z,98061.97
2023-05-06T10:20:47.735Z,98060.69
2023-05-06T10:23:21.324Z,98055.84
2023-05-06T10:25:51.242Z,98059.47
2023-05-06T10:28:26.260Z,98052.97
2023-05-06T10:30:58.539Z,98048.75
2023-05-06T10:33:26.529Z,98051.06
2023-05-06T10:35:55.686Z,98045.66
2023-05-06T10:38:24.840Z,98055.00
2023-05-06T10:40:53.882Z,98043.22
2023-05-06T10:43:24.880Z,98034.31
2023-05-06T10:46:02.600Z,98043.88
2023-05-06T10:48:30.159Z,98049.78
2023-05-06T10:51:18.067Z,98027.69
2023-05-06T10:53:58.071Z,98027.53
2023-05-06T10:56:27.013Z,98025.78
2023-05-06T10:58:54.244Z,98025.22
2023-05-06T11:01:21.876Z,98030.47
2023-05-06T11:03:50.709Z,98022.50
2023-05-06T11:06:32.031Z,98027.38
2023-05-06T11:08:59.457Z,98028.91
2023-05-06T11:11:44.915Z,98021.59
2023-05-06T11:14:14.283Z,98013.25
2023-05-06T11:16:47.213Z,98021.22
2023-05-06T11:19:18.656Z,98019.75
2023-05-06T11:21:45.738Z,98028.50
2023-05-06T11:24:13.711Z,98010.22
2023-05-06T11:26:41.565Z,98008.09
2023-05-06T11:29:09.107Z,98006.94
2023-05-06T11:31:41.803Z,98006.22
2023-05-06T11:34:09.983Z,97989.53
2023-05-06T11:36:37.805Z,97987.47
2023-05-06T11:39:08.339Z,97995.78
2023-05-06T11:41:38.751Z,97991.34
2023-05-06T11:44:05.842Z,97984.81
2023-05-06T11:46:33.339Z,97974.53
2023-05-06T11:49:01.968Z,97981.75
2023-05-06T11:51:29.634Z,97969.97
2023-05-06T11:54:04.420Z,97975.31
2023-05-06T11:56:31.510Z,97975.94
2023-05-06T11:58:58.556Z,97963.06
2023-05-06T12:01:25.630Z,97954.16
2023-05-06T12:03:55.440Z,97965.38
2023-05-06T12:06:34.235Z,97958.41
2023-05-06T12:09:01.534Z,97956.16
2023-05-06T12:11:28.860Z,97955.72
2023-05-06T12:13:56.153Z,97950.78
2023-05-06T12:16:23.478Z,97952.44
2023-05-06T12:18:50.658Z,97943.41
2023-05-06T12:21:22.138Z,97940.13
2023-05-06T12:23:54.463Z,97941.88
2023-05-06T12:26:21.579Z,97936.97
2023-05-06T12:29:04.313Z,97938.94
2023-05-06T12:31:31.473Z,97934.09
2023-05-06T12:34:00.547Z,97931.09
2023-05-06T12:36:28.606Z,97925.06
2023-05-06T12:38:57.874Z,97920.97
2023-05-06T12:41:25.552Z,97925.69
2023-05-06T12:43:52.707Z,97922.88
2023-05-06T12:46:19.878Z,97916.78
2023-05-06T12:48:57.021Z,97912.75
2023-05-06T12:51:24.344Z,97917.78
2023-05-06T12:53:51.420Z,97914.72
2023-05-06T12:56:20.020Z,97914.03
2023-05-06T12:58:55.961Z,97912.28
2023-05-06T13:01:23.433Z,97898.59
2023-05-06T13:03:51.308Z,97899.97
2023-05-06T13:06:18.419Z,97900.69
2023-05-06T13:08:45.522Z,97895.16
2023-05-06T13:11:12.612Z,97889.69
2023-05-06T13:13:41.110Z,97884.13
2023-05-06T13:16:08.840Z,97889.31
2023-05-06T13:18:36.155Z,97885.91
2023-05-06T13:21:03.274Z,97887.69
2023-05-06T13:23:30.453Z,97887.06
2023-05-06T13:26:04.862Z,97890.03
2023-05-06T13:28:33.281Z,97892.41
2023-05-06T13:31:01.936Z,97885.44
2023-05-06T13:33:29.056Z,97890.84
2023-05-06T13:35:56.188Z,97884.16
2023-05-06T13:38:23.448Z,97893.59
2023-05-06T13:40:51.622Z,97884.59
2023-05-06T13:43:18.962Z,97879.06
2023-05-06T13:45:46.198Z,97885.66
2023-05-06T13:48:15.983Z,97872.72
2023-05-06T13:50:43.299Z,97871.03
2023-05-06T13:53:10.680Z,97870.78
2023-05-06T13:55:38.150Z,97869.03
2023-05-06T13:58:05.870Z,97872.63
2023-05-06T14:00:33.201Z,97870.25
2023-05-06T14:03:00.569Z,97866.53
2023-05-06T14:05:29.211Z,97865.78
2023-05-06T14:07:56.399Z,97866.75
2023-05-06T14:10:23.545Z,97864.38
2023-05-06T14:12:50.806Z,97869.81
2023-05-06T14:15:17.996Z,97862.91
2023-05-06T14:17:45.617Z,97870.69
2023-05-06T14:20:12.819Z,97867.16
2023-05-06T14:22:41.657Z,97873.56
2023-05-06T14:25:09.999Z,97865.78
2023-05-06T14:27:37.446Z,97860.00
2023-05-06T14:30:06.676Z,97867.44
2023-05-06T14:32:35.981Z,97872.38
2023-05-06T14:35:03.149Z,97858.44
2023-05-06T14:37:30.861Z,97860.22
2023-05-06T14:39:59.456Z,97864.34
2023-05-06T14:42:26.626Z,97864.91
2023-05-06T14:44:53.821Z,97866.06
2023-05-06T14:47:20.911Z,97857.34
2023-05-06T14:49:48.144Z,97858.84
2023-05-06T14:52:15.205Z,97864.06
2023-05-06T14:54:42.781Z,97862.03
2023-05-06T14:57:11.872Z,97869.69
2023-05-06T14:59:38.981Z,97866.03
2023-05-06T15:02:07.296Z,97861.44
2023-05-06T15:04:34.434Z,97860.94
2023-05-06T15:07:01.980Z,97853.19
2023-05-06T15:09:29.169Z,97853.06
2023-05-06T15:11:56.292Z,97855.19
2023-05-06T15:14:24.832Z,97855.06
2023-05-06T15:16:53.083Z,97849.19
2023-05-06T15:19:20.464Z,97843.66
2023-05-06T15:21:47.562Z,97846.94
2023-05-06T15:24:14.649Z,97854.38
2023-05-06T15:26:41.788Z,97850.38
2023-05-06T15:29:08.887Z,97848.13
2023-05-06T15:31:37.470Z,97842.53
2023-05-06T15:34:05.217Z,97843.19
2023-05-06T15:36:32.460Z,97847.16
2023-05-06T15:39:00.645Z,97838.81
2023-05-06T15:41:28.650Z,97838.47
2023-05-06T15:43:56.575Z,97837.63
2023-05-06T15:46:23.784Z,97839.97
2023-05-06T15:49:09.067Z,97835.28
2023-05-06T15:51:39.401Z,97834.47
2023-05-06T15:54:06.959Z,97827.19
2023-05-06T15:56:39.363Z,97833.19
2023-05-06T15:59:09.044Z,97828.38
2023-05-06T16:02:16.567Z,97826.88
2023-05-06T16:04:25.527Z,97820.50
2023-05-06T16:06:52.748Z,97817.94
2023-05-06T16:09:20.221Z,97824.44
2023-05-06T16:11:47.299Z,97814.28
2023-05-06T16:14:14.343Z,97809.47
2023-05-06T16:16:42.131Z,97813.00
2023-05-06T16:19:09.560Z,97810.06
2023-05-06T16:21:38.124Z,97813.31
2023-05-06T16:24:05.384Z,97806.75
2023-05-06T16:26:32.430Z,97804.16
2023-05-06T16:28:59.610Z,97803.66
2023-05-06T16:31:26.896Z,97812.16
2023-05-06T16:33:53.998Z,97803.56
2023-05-06T16:36:21.093Z,97810.81
2023-05-06T16:38:50.238Z,97805.41
2023-05-06T16:41:17.386Z,97809.31
2023-05-06T16:43:44.603Z,97803.28
2023-05-06T16:46:11.749Z,97804.75
2023-05-06T16:48:39.354Z,97802.66
2023-05-06T16:51:06.732Z,97802.53
2023-05-06T16:53:33.841Z,97795.38
2023-05-06T16:56:03.180Z,97800.28
2023-05-06T16:58:30.201Z,97800.94
2023-05-06T17:00:57.439Z,97799.44
2023-05-06T17:03:24.816Z,97795.16
2023-05-06T17:05:52.040Z,97798.69
2023-05-06T17:08:19.327Z,97820.63
2023-05-06T17:10:46.576Z,97825.13
2023-05-06T17:13:15.172Z,97806.16
2023-05-06T17:15:42.250Z,97817.41
2023-05-06T17:18:09.411Z,97820.09
2023-05-06T17:20:51.524Z,97823.13
2023-05-06T17:23:22.861Z,97821.09
2023-05-06T17:25:50.070Z,97806.19
2023-05-06T17:31:05.730Z,97808.78
2023-05-06T17:33:32.919Z,97811.63
2023-05-06T17:36:00.114Z,97807.19
2023-05-06T17:38:27.272Z,97816.38
2023-05-06T17:40:54.334Z,97812.63
2023-05-06T17:43:22.925Z,97814.94
2023-05-06T17:45:50.098Z,97829.50
2023-05-06T17:48:17.177Z,97823.97
2023-05-06T17:50:44.257Z,97820.03
2023-05-06T17:53:11.715Z,97818.91
2023-05-06T17:55:38.786Z,97817.94
2023-05-06T17:58:06.076Z,97824.69
2023-05-06T18:00:34.792Z,97827.56
2023-05-06T18:03:01.974Z,97825.25
2023-05-06T18:05:29.263Z,97824.88
2023-05-06T18:07:56.837Z,97817.41
2023-05-06T18:10:23.905Z,97827.66
2023-05-06T18:12:51.055Z,97820.81
2023-05-06T18:15:18.278Z,97828.09
2023-05-06T18:17:47.012Z,97823.34
2023-05-06T18:20:14.105Z,97823.34
2023-05-06T18:22:41.189Z,97827.22
2023-05-06T18:25:09.326Z,97825.94
2023-05-06T18:27:36.569Z,97824.28
2023-05-06T18:30:03.772Z,97823.81
2023-05-06T18:32:31.438Z,97824.81
2023-05-06T18:35:00.062Z,97821.44
2023-05-06T18:37:27.940Z,97822.66
2023-05-06T18:39:55.417Z,97822.75
2023-05-06T18:42:22.577Z,97826.34
2023-05-06T18:44:49.697Z,97826.94
2023-05-06T18:47:17.336Z,97827.31
2023-05-06T18:49:44.769Z,97823.41
2023-05-06T18:52:13.426Z,97816.72
2023-05-06T18:54:40.587Z,97814.84
2023-05-06T18:57:07.873Z,97821.53
2023-05-06T18:59:35.062Z,97814.47
2023-05-06T19:02:03.771Z,97815.91
2023-05-06T19:04:31.802Z,97814.78
2023-05-06T19:06:58.962Z,97818.63
2023-05-06T19:09:27.516Z,97817.28
2023-05-06T19:11:54.601Z,97816.50
2023-05-06T19:14:22.901Z,97810.94
2023-05-06T19:16:50.609Z,97816.13
2023-05-06T19:19:17.760Z,97815.75
2023-05-06T19:21:44.825Z,97812.03
2023-05-06T19:24:12.413Z,97816.97
2023-05-06T19:26:41.023Z,97816.13
2023-05-06T19:29:08.402Z,97812.53
2023-05-06T19:31:35.709Z,97811.09
2023-05-06T19:34:03.450Z,97811.41
2023-05-06T19:36:30.498Z,97816.59
2023-05-06T19:38:57.557Z,97815.31
2023-05-06T19:41:25.270Z,97812.50
2023-05-06T19:43:53.785Z,97804.53
2023-05-06T19:46:20.951Z,97800.22
2023-05-06T19:48:48.195Z,97810.75
2023-05-06T19:51:15.264Z,97800.66
2023-05-06T19:53:42.364Z,97805.97
2023-05-06T19:56:10.126Z,97809.41
2023-05-06T19:58:37.278Z,97799.63
2023-05-06T20:01:06.468Z,97798.22
2023-05-06T20:03:34.180Z,97794.47
2023-05-06T20:06:01.356Z,97783.88
2023-05-06T20:08:28.961Z,97786.56
2023-05-06T20:10:56.067Z,97793.06
2023-05-06T20:13:23.400Z,97791.16
2023-05-06T20:15:50.607Z,97785.72
2023-05-06T20:18:19.193Z,97779.19
2023-05-06T20:20:46.229Z,97776.91
2023-05-06T20:23:13.306Z,97785.28
2023-05-06T20:25:40.415Z,97776.69
2023-05-06T20:28:07.642Z,97771.13
2023-05-06T20:30:34.752Z,97766.56
2023-05-06T20:33:02.531Z,97767.03
2023-05-06T20:35:31.150Z,97761.34
2023-05-06T20:37:58.267Z,97761.72
2023-05-06T20:40:25.392Z,97765.84
2023-05-06T20:42:52.531Z,97759.38
2023-05-06T20:45:19.857Z,97761.50
2023-05-06T20:47:47.094Z,97760.66
2023-05-06T20:50:14.231Z,97758.78
2023-05-06T20:52:43.086Z,97754.19
2023-05-06T20:55:10.615Z,97751.47
2023-05-06T20:57:41.939Z,97753.97
2023-05-06T21:00:09.518Z,97751.00
2023-05-06T21:02:41.318Z,97748.19
2023-05-06T21:05:09.773Z,97745.72
2023-05-06T21:07:37.112Z,97748.91
2023-05-06T21:10:06.115Z,97747.25
2023-05-06T21:12:33.582Z,97738.91
2023-05-06T21:15:00.717Z,97746.06
2023-05-06T21:17:29.299Z,97743.34
2023-05-06T21:19:56.489Z,97738.78
2023-05-06T21:22:24.122Z,97741.69
2023-05-06T21:24:51.431Z,97736.91
2023-05-06T21:27:20.136Z,97734.41
2023-05-06T21:29:47.213Z,97731.47
2023-05-06T21:32:14.447Z,97739.25
2023-05-06T21:34:41.495Z,97730.63
2023-05-06T21:37:08.713Z,97728.16
2023-05-06T21:39:35.764Z,97731.34
2023-05-06T21:42:02.855Z,97721.34
2023-05-06T21:44:32.996Z,97728.63
2023-05-06T21:47:00.188Z,97723.22
2023-05-06T21:49:27.352Z,97728.28
2023-05-06T21:51:54.482Z,97715.34
2023-05-06T21:54:21.535Z,97719.09
2023-05-06T21:56:48.607Z,97718.97
2023-05-06T21:59:15.689Z,97723.00
2023-05-06T22:01:44.888Z,97718.38
2023-05-06T22:04:12.068Z,97720.66
2023-05-06T22:06:39.326Z,97719.31
2023-05-06T22:09:06.452Z,97719.31
2023-05-06T22:11:33.648Z,97715.44
2023-05-06T22:14:00.863Z,97715.81
2023-05-06T22:16:28.103Z,97713.34
2023-05-06T22:18:56.830Z,97716.03
2023-05-06T22:21:23.985Z,97712.75
2023-05-06T22:23:51.057Z,97719.44
2023-05-06T22:26:18.182Z,97718.28
2023-05-06T22:28:45.268Z,97716.16
2023-05-06T22:31:12.401Z,97712.38
2023-05-06T22:33:39.983Z,97711.91
2023-05-06T22:36:08.702Z,97710.72
2023-05-06T22:38:35.786Z,97701.31
2023-05-06T22:41:02.915Z,97694.44
2023-05-06T22:43:29.945Z,97699.06
2023-05-06T22:45:57.159Z,97692.56
2023-05-06T22:48:24.281Z,97701.50
2023-05-06T22:50:51.346Z,97698.22
2023-05-06T22:53:19.897Z,97697.03
2023-05-06T22:55:46.973Z,97688.09
2023-05-06T22:58:14.073Z,97689.59
2023-05-06T23:00:41.376Z,97683.81
2023-05-06T23:03:08.553Z,97681.47
2023-05-06T23:05:35.733Z,97685.09
2023-05-06T23:08:02.941Z,97687.00
2023-05-06T23:10:31.485Z,97685.09
2023-05-06T23:13:00.236Z,97678.50
2023-05-06T23:15:27.607Z,97682.03
2023-05-06T23:17:54.911Z,97680.88
2023-05-06T23:20:22.099Z,97685.69
2023-05-06T23:22:49.161Z,97689.00
2023-05-06T23:25:17.229Z,97685.56
2023-05-06T23:27:46.762Z,97679.22
2023-05-06T23:30:13.990Z,97679.69
2023-05-06T23:32:41.222Z,97678.88
2023-05-06T23:35:08.902Z,97678.28
2023-05-06T23:37:36.211Z,97674.38
2023-05-06T23:40:03.377Z,97677.69
2023-05-06T23:42:30.431Z,97695.19
2023-05-06T23:44:59.050Z,97698.00
2023-05-06T23:47:26.149Z,97704.00
2023-05-06T23:49:53.259Z,97700.38
2023-05-06T23:52:20.385Z,97697.56
2023-05-06T23:54:47.449Z,97687.22
2023-05-06T23:57:14.645Z,97693.06
2023-05-06T23:59:41.698Z,97691.31
